sensor_id;sensor_type;location;lat;lon;timestamp;P1;durP1;ratioP1;P2;durP2;ratioP2
50605;SDS011;36557;53.572;10.170;2023-04-15T00:01:02;3.80;;;2.92;;
50605;SDS011;36557;53.572;10.170;2023-04-15T00:03:28;4.03;;;2.83;;
50605;SDS011;36557;53.572;10.170;2023-04-15T00:05:54;4.70;;;3.17;;
50605;SDS011;36557;53.572;10.170;2023-04-15T00:08:20;4.75;;;3.25;;
50605;SDS011;36557;53.572;10.170;2023-04-15T00:10:47;3.17;;;2.60;;
50605;SDS011;36557;53.572;10.170;2023-04-15T00:13:13;4.50;;;2.80;;
50605;SDS011;36557;53.572;10.170;2023-04-15T00:15:39;3.67;;;2.55;;
50605;SDS011;36557;53.572;10.170;2023-04-15T00:18:06;3.88;;;2.53;;
50605;SDS011;36557;53.572;10.170;2023-04-15T00:20:33;5.53;;;2.85;;
50605;SDS011;36557;53.572;10.170;2023-04-15T00:23:00;4.55;;;3.00;;
50605;SDS011;36557;53.572;10.170;2023-04-15T00:25:27;4.90;;;2.75;;
50605;SDS011;36557;53.572;10.170;2023-04-15T00:27:53;4.20;;;2.92;;
50605;SDS011;36557;53.572;10.170;2023-04-15T00:30:20;3.05;;;2.50;;
50605;SDS011;36557;53.572;10.170;2023-04-15T00:32:46;3.08;;;2.28;;
50605;SDS011;36557;53.572;10.170;2023-04-15T00:35:12;2.95;;;2.25;;
50605;SDS011;36557;53.572;10.170;2023-04-15T00:37:39;4.18;;;2.42;;
50605;SDS011;36557;53.572;10.170;2023-04-15T00:40:05;5.05;;;2.70;;
50605;SDS011;36557;53.572;10.170;2023-04-15T00:42:31;3.88;;;2.55;;
50605;SDS011;36557;53.572;10.170;2023-04-15T00:44:58;4.35;;;2.75;;
50605;SDS011;36557;53.572;10.170;2023-04-15T00:47:25;3.58;;;2.33;;
50605;SDS011;36557;53.572;10.170;2023-04-15T00:49:52;3.28;;;2.30;;
50605;SDS011;36557;53.572;10.170;2023-04-15T00:52:18;4.50;;;2.35;;
50605;SDS011;36557;53.572;10.170;2023-04-15T00:54:44;3.47;;;2.40;;
50605;SDS011;36557;53.572;10.170;2023-04-15T00:57:10;3.75;;;2.58;;
50605;SDS011;36557;53.572;10.170;2023-04-15T00:59:36;3.72;;;2.63;;
50605;SDS011;36557;53.572;10.170;2023-04-15T01:02:02;3.72;;;2.63;;
50605;SDS011;36557;53.572;10.170;2023-04-15T01:04:29;4.70;;;2.80;;
50605;SDS011;36557;53.572;10.170;2023-04-15T01:06:55;3.60;;;2.35;;
50605;SDS011;36557;53.572;10.170;2023-04-15T01:09:22;3.60;;;2.85;;
50605;SDS011;36557;53.572;10.170;2023-04-15T01:11:48;4.03;;;2.88;;
50605;SDS011;36557;53.572;10.170;2023-04-15T01:14:14;3.53;;;2.38;;
50605;SDS011;36557;53.572;10.170;2023-04-15T01:16:40;3.25;;;2.65;;
50605;SDS011;36557;53.572;10.170;2023-04-15T01:19:07;4.00;;;2.28;;
50605;SDS011;36557;53.572;10.170;2023-04-15T01:21:35;4.00;;;3.17;;
50605;SDS011;36557;53.572;10.170;2023-04-15T01:24:04;3.53;;;2.50;;
50605;SDS011;36557;53.572;10.170;2023-04-15T01:26:33;4.05;;;2.70;;
50605;SDS011;36557;53.572;10.170;2023-04-15T01:29:00;3.60;;;2.80;;
50605;SDS011;36557;53.572;10.170;2023-04-15T01:31:26;4.38;;;2.70;;
50605;SDS011;36557;53.572;10.170;2023-04-15T01:33:52;4.40;;;2.63;;
50605;SDS011;36557;53.572;10.170;2023-04-15T01:36:18;4.07;;;2.60;;
50605;SDS011;36557;53.572;10.170;2023-04-15T01:38:44;4.57;;;2.83;;
50605;SDS011;36557;53.572;10.170;2023-04-15T01:41:12;3.35;;;2.70;;
50605;SDS011;36557;53.572;10.170;2023-04-15T01:43:38;4.97;;;3.13;;
50605;SDS011;36557;53.572;10.170;2023-04-15T01:46:04;3.13;;;2.40;;
50605;SDS011;36557;53.572;10.170;2023-04-15T01:48:31;4.55;;;3.15;;
50605;SDS011;36557;53.572;10.170;2023-04-15T01:50:57;4.45;;;3.08;;
50605;SDS011;36557;53.572;10.170;2023-04-15T01:53:23;5.70;;;3.10;;
50605;SDS011;36557;53.572;10.170;2023-04-15T01:55:50;5.38;;;3.33;;
50605;SDS011;36557;53.572;10.170;2023-04-15T01:58:16;3.70;;;2.95;;
50605;SDS011;36557;53.572;10.170;2023-04-15T02:00:43;5.88;;;3.40;;
50605;SDS011;36557;53.572;10.170;2023-04-15T02:03:09;4.95;;;3.60;;
50605;SDS011;36557;53.572;10.170;2023-04-15T02:05:35;5.20;;;3.15;;
50605;SDS011;36557;53.572;10.170;2023-04-15T02:08:01;5.22;;;3.60;;
50605;SDS011;36557;53.572;10.170;2023-04-15T02:10:27;6.07;;;3.55;;
50605;SDS011;36557;53.572;10.170;2023-04-15T02:12:54;5.03;;;3.63;;
50605;SDS011;36557;53.572;10.170;2023-04-15T02:15:20;6.05;;;3.88;;
50605;SDS011;36557;53.572;10.170;2023-04-15T02:17:46;6.70;;;4.38;;
50605;SDS011;36557;53.572;10.170;2023-04-15T02:20:15;6.13;;;4.00;;
50605;SDS011;36557;53.572;10.170;2023-04-15T02:22:42;6.32;;;4.38;;
50605;SDS011;36557;53.572;10.170;2023-04-15T02:25:08;6.68;;;4.43;;
50605;SDS011;36557;53.572;10.170;2023-04-15T02:27:35;7.78;;;4.65;;
50605;SDS011;36557;53.572;10.170;2023-04-15T02:30:02;7.20;;;4.95;;
50605;SDS011;36557;53.572;10.170;2023-04-15T02:32:28;6.82;;;4.60;;
50605;SDS011;36557;53.572;10.170;2023-04-15T02:34:54;7.22;;;5.05;;
50605;SDS011;36557;53.572;10.170;2023-04-15T02:37:20;7.30;;;4.95;;
50605;SDS011;36557;53.572;10.170;2023-04-15T02:39:47;9.75;;;5.45;;
50605;SDS011;36557;53.572;10.170;2023-04-15T02:42:13;7.43;;;5.30;;
50605;SDS011;36557;53.572;10.170;2023-04-15T02:44:40;9.52;;;5.60;;
50605;SDS011;36557;53.572;10.170;2023-04-15T02:47:06;10.23;;;5.57;;
50605;SDS011;36557;53.572;10.170;2023-04-15T02:49:32;9.40;;;5.88;;
50605;SDS011;36557;53.572;10.170;2023-04-15T02:51:58;10.80;;;6.32;;
50605;SDS011;36557;53.572;10.170;2023-04-15T02:54:24;13.07;;;6.70;;
50605;SDS011;36557;53.572;10.170;2023-04-15T02:56:52;10.23;;;6.30;;
50605;SDS011;36557;53.572;10.170;2023-04-15T02:59:22;10.55;;;6.85;;
50605;SDS011;36557;53.572;10.170;2023-04-15T03:01:48;10.80;;;7.10;;
50605;SDS011;36557;53.572;10.170;2023-04-15T03:04:14;10.68;;;7.28;;
50605;SDS011;36557;53.572;10.170;2023-04-15T03:06:40;12.95;;;7.60;;
50605;SDS011;36557;53.572;10.170;2023-04-15T03:09:06;11.55;;;8.02;;
50605;SDS011;36557;53.572;10.170;2023-04-15T03:11:32;13.15;;;8.10;;
50605;SDS011;36557;53.572;10.170;2023-04-15T03:14:00;13.27;;;7.93;;
50605;SDS011;36557;53.572;10.170;2023-04-15T03:16:26;13.57;;;8.38;;
50605;SDS011;36557;53.572;10.170;2023-04-15T03:18:52;13.30;;;8.52;;
50605;SDS011;36557;53.572;10.170;2023-04-15T03:21:18;13.60;;;8.70;;
50605;SDS011;36557;53.572;10.170;2023-04-15T03:23:45;13.38;;;8.40;;
50605;SDS011;36557;53.572;10.170;2023-04-15T03:26:22;14.20;;;8.80;;
50605;SDS011;36557;53.572;10.170;2023-04-15T03:28:49;15.68;;;10.02;;
50605;SDS011;36557;53.572;10.170;2023-04-15T03:31:15;14.02;;;9.02;;
50605;SDS011;36557;53.572;10.170;2023-04-15T03:33:41;15.23;;;9.18;;
50605;SDS011;36557;53.572;10.170;2023-04-15T03:36:07;14.18;;;8.88;;
50605;SDS011;36557;53.572;10.170;2023-04-15T03:38:33;14.85;;;8.98;;
50605;SDS011;36557;53.572;10.170;2023-04-15T03:40:59;17.40;;;9.60;;
50605;SDS011;36557;53.572;10.170;2023-04-15T03:43:25;15.88;;;9.20;;
50605;SDS011;36557;53.572;10.170;2023-04-15T03:45:51;16.45;;;9.95;;
50605;SDS011;36557;53.572;10.170;2023-04-15T03:48:17;14.38;;;9.02;;
50605;SDS011;36557;53.572;10.170;2023-04-15T03:50:43;14.85;;;9.27;;
50605;SDS011;36557;53.572;10.170;2023-04-15T03:53:10;14.52;;;8.82;;
50605;SDS011;36557;53.572;10.170;2023-04-15T03:55:36;15.63;;;9.07;;
50605;SDS011;36557;53.572;10.170;2023-04-15T03:58:02;14.80;;;8.48;;
50605;SDS011;36557;53.572;10.170;2023-04-15T04:00:28;15.43;;;9.27;;
50605;SDS011;36557;53.572;10.170;2023-04-15T04:02:54;15.48;;;9.32;;
50605;SDS011;36557;53.572;10.170;2023-04-15T04:05:20;14.85;;;9.48;;
50605;SDS011;36557;53.572;10.170;2023-04-15T04:07:47;16.58;;;9.68;;
50605;SDS011;36557;53.572;10.170;2023-04-15T04:10:13;15.35;;;9.65;;
50605;SDS011;36557;53.572;10.170;2023-04-15T04:12:39;16.90;;;10.18;;
50605;SDS011;36557;53.572;10.170;2023-04-15T04:15:05;16.02;;;10.20;;
50605;SDS011;36557;53.572;10.170;2023-04-15T04:17:32;17.80;;;10.15;;
50605;SDS011;36557;53.572;10.170;2023-04-15T04:19:58;16.05;;;10.25;;
50605;SDS011;36557;53.572;10.170;2023-04-15T04:22:24;17.67;;;10.77;;
50605;SDS011;36557;53.572;10.170;2023-04-15T04:24:50;18.58;;;11.00;;
50605;SDS011;36557;53.572;10.170;2023-04-15T04:27:16;19.48;;;11.07;;
50605;SDS011;36557;53.572;10.170;2023-04-15T04:29:42;21.45;;;12.80;;
50605;SDS011;36557;53.572;10.170;2023-04-15T04:32:08;21.23;;;11.93;;
50605;SDS011;36557;53.572;10.170;2023-04-15T04:34:34;20.48;;;12.15;;
50605;SDS011;36557;53.572;10.170;2023-04-15T04:37:00;19.33;;;11.23;;
50605;SDS011;36557;53.572;10.170;2023-04-15T04:39:26;21.52;;;12.32;;
50605;SDS011;36557;53.572;10.170;2023-04-15T04:41:52;27.08;;;12.40;;
50605;SDS011;36557;53.572;10.170;2023-04-15T04:44:18;19.58;;;11.23;;
50605;SDS011;36557;53.572;10.170;2023-04-15T04:46:44;21.90;;;13.32;;
50605;SDS011;36557;53.572;10.170;2023-04-15T04:49:10;22.23;;;13.35;;
50605;SDS011;36557;53.572;10.170;2023-04-15T04:51:36;22.98;;;13.60;;
50605;SDS011;36557;53.572;10.170;2023-04-15T04:54:03;22.73;;;14.40;;
50605;SDS011;36557;53.572;10.170;2023-04-15T04:56:29;24.13;;;13.60;;
50605;SDS011;36557;53.572;10.170;2023-04-15T04:58:55;22.27;;;13.38;;
50605;SDS011;36557;53.572;10.170;2023-04-15T05:01:21;24.95;;;15.32;;
50605;SDS011;36557;53.572;10.170;2023-04-15T05:03:47;25.42;;;14.15;;
50605;SDS011;36557;53.572;10.170;2023-04-15T05:06:13;22.63;;;13.80;;
50605;SDS011;36557;53.572;10.170;2023-04-15T05:08:39;26.83;;;15.15;;
50605;SDS011;36557;53.572;10.170;2023-04-15T05:11:05;30.90;;;16.08;;
50605;SDS011;36557;53.572;10.170;2023-04-15T05:13:31;23.92;;;14.85;;
50605;SDS011;36557;53.572;10.170;2023-04-15T05:15:58;26.35;;;15.50;;
50605;SDS011;36557;53.572;10.170;2023-04-15T05:18:24;26.70;;;15.23;;
50605;SDS011;36557;53.572;10.170;2023-04-15T05:20:50;26.70;;;16.13;;
50605;SDS011;36557;53.572;10.170;2023-04-15T05:23:16;24.98;;;15.55;;
50605;SDS011;36557;53.572;10.170;2023-04-15T05:25:42;25.52;;;15.73;;
50605;SDS011;36557;53.572;10.170;2023-04-15T05:28:08;25.73;;;15.60;;
50605;SDS011;36557;53.572;10.170;2023-04-15T05:30:34;27.02;;;16.67;;
50605;SDS011;36557;53.572;10.170;2023-04-15T05:33:00;26.80;;;15.88;;
50605;SDS011;36557;53.572;10.170;2023-04-15T05:35:26;25.70;;;15.75;;
50605;SDS011;36557;53.572;10.170;2023-04-15T05:37:52;28.73;;;16.15;;
50605;SDS011;36557;53.572;10.170;2023-04-15T05:40:18;24.67;;;15.80;;
50605;SDS011;36557;53.572;10.170;2023-04-15T05:42:44;26.40;;;16.45;;
50605;SDS011;36557;53.572;10.170;2023-04-15T05:45:10;27.63;;;18.13;;
50605;SDS011;36557;53.572;10.170;2023-04-15T05:47:37;28.75;;;17.13;;
50605;SDS011;36557;53.572;10.170;2023-04-15T05:50:03;29.65;;;18.00;;
50605;SDS011;36557;53.572;10.170;2023-04-15T05:52:30;28.58;;;18.02;;
50605;SDS011;36557;53.572;10.170;2023-04-15T05:54:56;29.85;;;19.17;;
50605;SDS011;36557;53.572;10.170;2023-04-15T05:57:22;30.13;;;18.85;;
50605;SDS011;36557;53.572;10.170;2023-04-15T05:59:48;33.45;;;19.58;;
50605;SDS011;36557;53.572;10.170;2023-04-15T06:02:16;34.10;;;19.25;;
50605;SDS011;36557;53.572;10.170;2023-04-15T06:04:42;32.90;;;17.75;;
50605;SDS011;36557;53.572;10.170;2023-04-15T06:07:08;33.08;;;19.50;;
50605;SDS011;36557;53.572;10.170;2023-04-15T06:09:34;31.85;;;18.02;;
50605;SDS011;36557;53.572;10.170;2023-04-15T06:12:00;33.58;;;20.60;;
50605;SDS011;36557;53.572;10.170;2023-04-15T06:14:27;37.60;;;19.10;;
50605;SDS011;36557;53.572;10.170;2023-04-15T06:16:53;33.40;;;20.42;;
50605;SDS011;36557;53.572;10.170;2023-04-15T06:19:19;33.83;;;19.05;;
50605;SDS011;36557;53.572;10.170;2023-04-15T06:21:45;35.05;;;18.92;;
50605;SDS011;36557;53.572;10.170;2023-04-15T06:24:11;34.13;;;19.92;;
50605;SDS011;36557;53.572;10.170;2023-04-15T06:26:37;33.58;;;18.75;;
50605;SDS011;36557;53.572;10.170;2023-04-15T06:29:03;32.20;;;17.83;;
50605;SDS011;36557;53.572;10.170;2023-04-15T06:31:29;32.53;;;19.17;;
50605;SDS011;36557;53.572;10.170;2023-04-15T06:33:55;35.88;;;17.98;;
50605;SDS011;36557;53.572;10.170;2023-04-15T06:36:21;32.90;;;18.67;;
50605;SDS011;36557;53.572;10.170;2023-04-15T06:38:47;34.80;;;20.25;;
50605;SDS011;36557;53.572;10.170;2023-04-15T06:41:13;29.50;;;18.42;;
50605;SDS011;36557;53.572;10.170;2023-04-15T06:43:39;34.63;;;23.13;;
50605;SDS011;36557;53.572;10.170;2023-04-15T06:46:05;30.52;;;19.30;;
50605;SDS011;36557;53.572;10.170;2023-04-15T06:48:31;30.50;;;18.98;;
50605;SDS011;36557;53.572;10.170;2023-04-15T06:50:57;35.45;;;19.60;;
50605;SDS011;36557;53.572;10.170;2023-04-15T06:53:24;30.50;;;17.92;;
50605;SDS011;36557;53.572;10.170;2023-04-15T06:55:53;35.03;;;19.35;;
50605;SDS011;36557;53.572;10.170;2023-04-15T06:58:19;33.67;;;21.45;;
50605;SDS011;36557;53.572;10.170;2023-04-15T07:00:46;35.75;;;20.80;;
50605;SDS011;36557;53.572;10.170;2023-04-15T07:03:12;35.58;;;19.45;;
50605;SDS011;36557;53.572;10.170;2023-04-15T07:05:39;37.47;;;24.80;;
50605;SDS011;36557;53.572;10.170;2023-04-15T07:08:05;39.08;;;21.50;;
50605;SDS011;36557;53.572;10.170;2023-04-15T07:10:34;35.78;;;21.17;;
50605;SDS011;36557;53.572;10.170;2023-04-15T07:13:01;39.05;;;23.83;;
50605;SDS011;36557;53.572;10.170;2023-04-15T07:15:27;35.85;;;21.02;;
50605;SDS011;36557;53.572;10.170;2023-04-15T07:17:53;40.28;;;22.33;;
50605;SDS011;36557;53.572;10.170;2023-04-15T07:20:20;39.60;;;23.65;;
50605;SDS011;36557;53.572;10.170;2023-04-15T07:22:46;40.40;;;22.48;;
50605;SDS011;36557;53.572;10.170;2023-04-15T07:25:12;41.08;;;22.42;;
50605;SDS011;36557;53.572;10.170;2023-04-15T07:27:38;42.08;;;25.15;;
50605;SDS011;36557;53.572;10.170;2023-04-15T07:30:05;48.88;;;22.83;;
50605;SDS011;36557;53.572;10.170;2023-04-15T07:32:31;45.10;;;23.73;;
50605;SDS011;36557;53.572;10.170;2023-04-15T07:34:57;40.97;;;22.83;;
50605;SDS011;36557;53.572;10.170;2023-04-15T07:37:23;43.60;;;24.55;;
50605;SDS011;36557;53.572;10.170;2023-04-15T07:39:49;39.03;;;23.30;;
50605;SDS011;36557;53.572;10.170;2023-04-15T07:42:16;39.67;;;22.95;;
50605;SDS011;36557;53.572;10.170;2023-04-15T07:44:42;39.22;;;21.83;;
50605;SDS011;36557;53.572;10.170;2023-04-15T07:47:08;42.42;;;22.30;;
50605;SDS011;36557;53.572;10.170;2023-04-15T07:49:34;38.28;;;22.65;;
50605;SDS011;36557;53.572;10.170;2023-04-15T07:52:01;41.92;;;22.77;;
50605;SDS011;36557;53.572;10.170;2023-04-15T07:54:27;39.67;;;23.25;;
50605;SDS011;36557;53.572;10.170;2023-04-15T07:56:53;39.42;;;21.50;;
50605;SDS011;36557;53.572;10.170;2023-04-15T07:59:20;37.88;;;22.38;;
50605;SDS011;36557;53.572;10.170;2023-04-15T08:01:46;40.80;;;23.98;;
50605;SDS011;36557;53.572;10.170;2023-04-15T08:04:13;40.15;;;22.85;;
50605;SDS011;36557;53.572;10.170;2023-04-15T08:06:39;38.08;;;23.38;;
50605;SDS011;36557;53.572;10.170;2023-04-15T08:09:05;37.33;;;21.88;;
50605;SDS011;36557;53.572;10.170;2023-04-15T08:11:32;39.47;;;21.70;;
50605;SDS011;36557;53.572;10.170;2023-04-15T08:13:58;33.88;;;20.63;;
50605;SDS011;36557;53.572;10.170;2023-04-15T08:16:25;36.97;;;21.20;;
50605;SDS011;36557;53.572;10.170;2023-04-15T08:18:52;37.25;;;22.05;;
50605;SDS011;36557;53.572;10.170;2023-04-15T08:21:18;37.30;;;21.35;;
50605;SDS011;36557;53.572;10.170;2023-04-15T08:23:45;37.60;;;21.10;;
50605;SDS011;36557;53.572;10.170;2023-04-15T08:26:11;37.05;;;21.73;;
50605;SDS011;36557;53.572;10.170;2023-04-15T08:28:39;37.67;;;22.23;;
50605;SDS011;36557;53.572;10.170;2023-04-15T08:31:05;38.25;;;21.45;;
50605;SDS011;36557;53.572;10.170;2023-04-15T08:33:31;39.17;;;21.98;;
50605;SDS011;36557;53.572;10.170;2023-04-15T08:35:57;37.83;;;20.67;;
50605;SDS011;36557;53.572;10.170;2023-04-15T08:38:23;34.55;;;21.25;;
50605;SDS011;36557;53.572;10.170;2023-04-15T08:40:48;39.13;;;22.67;;
50605;SDS011;36557;53.572;10.170;2023-04-15T08:43:19;38.40;;;23.50;;
50605;SDS011;36557;53.572;10.170;2023-04-15T08:45:51;40.00;;;23.60;;
50605;SDS011;36557;53.572;10.170;2023-04-15T08:48:17;42.63;;;23.25;;
50605;SDS011;36557;53.572;10.170;2023-04-15T08:50:43;42.75;;;24.58;;
50605;SDS011;36557;53.572;10.170;2023-04-15T08:53:10;43.85;;;24.40;;
50605;SDS011;36557;53.572;10.170;2023-04-15T08:55:38;45.55;;;24.73;;
50605;SDS011;36557;53.572;10.170;2023-04-15T08:58:08;45.65;;;24.75;;
50605;SDS011;36557;53.572;10.170;2023-04-15T09:00:35;43.88;;;24.40;;
50605;SDS011;36557;53.572;10.170;2023-04-15T09:03:02;44.25;;;24.80;;
50605;SDS011;36557;53.572;10.170;2023-04-15T09:05:36;43.80;;;23.38;;
50605;SDS011;36557;53.572;10.170;2023-04-15T09:08:02;42.72;;;23.02;;
50605;SDS011;36557;53.572;10.170;2023-04-15T09:10:30;42.38;;;23.58;;
50605;SDS011;36557;53.572;10.170;2023-04-15T09:12:57;39.22;;;21.98;;
50605;SDS011;36557;53.572;10.170;2023-04-15T09:15:25;40.78;;;20.80;;
50605;SDS011;36557;53.572;10.170;2023-04-15T09:17:53;38.17;;;21.55;;
50605;SDS011;36557;53.572;10.170;2023-04-15T09:20:19;34.47;;;19.95;;
50605;SDS011;36557;53.572;10.170;2023-04-15T09:22:46;34.22;;;19.77;;
50605;SDS011;36557;53.572;10.170;2023-04-15T09:27:51;30.08;;;18.33;;
50605;SDS011;36557;53.572;10.170;2023-04-15T09:30:27;28.85;;;18.33;;
50605;SDS011;36557;53.572;10.170;2023-04-15T09:32:54;31.98;;;19.27;;
50605;SDS011;36557;53.572;10.170;2023-04-15T09:35:20;30.35;;;20.05;;
50605;SDS011;36557;53.572;10.170;2023-04-15T09:37:48;28.15;;;15.57;;
50605;SDS011;36557;53.572;10.170;2023-04-15T09:40:14;30.15;;;17.50;;
50605;SDS011;36557;53.572;10.170;2023-04-15T09:42:54;28.58;;;17.30;;
50605;SDS011;36557;53.572;10.170;2023-04-15T09:45:21;27.75;;;17.02;;
50605;SDS011;36557;53.572;10.170;2023-04-15T09:47:47;25.33;;;13.88;;
50605;SDS011;36557;53.572;10.170;2023-04-15T09:50:15;27.52;;;16.70;;
50605;SDS011;36557;53.572;10.170;2023-04-15T09:52:42;26.23;;;16.85;;
50605;SDS011;36557;53.572;10.170;2023-04-15T09:55:08;25.35;;;16.20;;
50605;SDS011;36557;53.572;10.170;2023-04-15T09:57:35;22.80;;;14.82;;
50605;SDS011;36557;53.572;10.170;2023-04-15T10:00:05;23.17;;;16.02;;
50605;SDS011;36557;53.572;10.170;2023-04-15T10:02:32;21.67;;;14.73;;
50605;SDS011;36557;53.572;10.170;2023-04-15T10:05:00;21.52;;;14.63;;
50605;SDS011;36557;53.572;10.170;2023-04-15T10:07:27;23.92;;;16.45;;
50605;SDS011;36557;53.572;10.170;2023-04-15T10:09:53;20.38;;;13.52;;
50605;SDS011;36557;53.572;10.170;2023-04-15T10:12:20;22.52;;;14.73;;
50605;SDS011;36557;53.572;10.170;2023-04-15T10:14:55;23.80;;;15.02;;
50605;SDS011;36557;53.572;10.170;2023-04-15T10:17:24;22.60;;;15.23;;
50605;SDS011;36557;53.572;10.170;2023-04-15T10:19:53;23.80;;;14.65;;
50605;SDS011;36557;53.572;10.170;2023-04-15T10:22:20;21.48;;;15.20;;
50605;SDS011;36557;53.572;10.170;2023-04-15T10:24:47;23.05;;;13.52;;
50605;SDS011;36557;53.572;10.170;2023-04-15T10:27:13;20.02;;;13.80;;
50605;SDS011;36557;53.572;10.170;2023-04-15T10:29:41;21.60;;;13.55;;
50605;SDS011;36557;53.572;10.170;2023-04-15T10:32:08;21.30;;;13.52;;
50605;SDS011;36557;53.572;10.170;2023-04-15T10:34:35;20.45;;;13.13;;
50605;SDS011;36557;53.572;10.170;2023-04-15T10:37:01;20.60;;;13.75;;
50605;SDS011;36557;53.572;10.170;2023-04-15T10:39:41;20.90;;;13.38;;
50605;SDS011;36557;53.572;10.170;2023-04-15T10:42:14;20.00;;;14.13;;
50605;SDS011;36557;53.572;10.170;2023-04-15T10:44:47;20.87;;;13.60;;
50605;SDS011;36557;53.572;10.170;2023-04-15T10:47:16;18.27;;;12.18;;
50605;SDS011;36557;53.572;10.170;2023-04-15T10:49:48;17.88;;;12.45;;
50605;SDS011;36557;53.572;10.170;2023-04-15T10:52:22;17.05;;;11.70;;
50605;SDS011;36557;53.572;10.170;2023-04-15T10:54:50;17.70;;;11.40;;
50605;SDS011;36557;53.572;10.170;2023-04-15T10:57:40;17.20;;;10.93;;
50605;SDS011;36557;53.572;10.170;2023-04-15T11:02:40;16.05;;;10.27;;
50605;SDS011;36557;53.572;10.170;2023-04-15T11:05:07;14.60;;;11.70;;
50605;SDS011;36557;53.572;10.170;2023-04-15T11:12:45;14.90;;;10.55;;
50605;SDS011;36557;53.572;10.170;2023-04-15T11:18:15;16.08;;;11.32;;
50605;SDS011;36557;53.572;10.170;2023-04-15T11:20:47;16.25;;;11.48;;
50605;SDS011;36557;53.572;10.170;2023-04-15T11:23:19;15.75;;;11.00;;
50605;SDS011;36557;53.572;10.170;2023-04-15T11:25:54;15.63;;;11.40;;
50605;SDS011;36557;53.572;10.170;2023-04-15T11:28:27;15.45;;;10.98;;
50605;SDS011;36557;53.572;10.170;2023-04-15T11:30:54;17.17;;;11.10;;
50605;SDS011;36557;53.572;10.170;2023-04-15T11:33:21;15.60;;;11.65;;
50605;SDS011;36557;53.572;10.170;2023-04-15T11:35:48;17.55;;;11.85;;
50605;SDS011;36557;53.572;10.170;2023-04-15T11:38:14;15.98;;;11.07;;
50605;SDS011;36557;53.572;10.170;2023-04-15T11:40:41;15.20;;;12.02;;
50605;SDS011;36557;53.572;10.170;2023-04-15T11:43:08;17.38;;;11.15;;
50605;SDS011;36557;53.572;10.170;2023-04-15T11:45:55;15.57;;;10.80;;
50605;SDS011;36557;53.572;10.170;2023-04-15T11:48:25;14.50;;;10.73;;
50605;SDS011;36557;53.572;10.170;2023-04-15T11:50:53;18.25;;;10.32;;
50605;SDS011;36557;53.572;10.170;2023-04-15T11:53:20;15.15;;;9.48;;
50605;SDS011;36557;53.572;10.170;2023-04-15T11:55:48;13.50;;;10.05;;
50605;SDS011;36557;53.572;10.170;2023-04-15T11:58:22;13.60;;;10.32;;
50605;SDS011;36557;53.572;10.170;2023-04-15T12:00:52;13.68;;;11.52;;
50605;SDS011;36557;53.572;10.170;2023-04-15T12:03:23;14.65;;;11.15;;
50605;SDS011;36557;53.572;10.170;2023-04-15T12:09:17;16.60;;;10.95;;
50605;SDS011;36557;53.572;10.170;2023-04-15T12:16:43;15.95;;;10.38;;
50605;SDS011;36557;53.572;10.170;2023-04-15T12:19:11;13.48;;;9.50;;
50605;SDS011;36557;53.572;10.170;2023-04-15T12:21:39;14.18;;;10.32;;
50605;SDS011;36557;53.572;10.170;2023-04-15T12:24:09;14.18;;;9.63;;
50605;SDS011;36557;53.572;10.170;2023-04-15T12:29:03;14.00;;;9.00;;
50605;SDS011;36557;53.572;10.170;2023-04-15T12:31:31;14.48;;;9.57;;
50605;SDS011;36557;53.572;10.170;2023-04-15T12:33:57;14.23;;;9.35;;
50605;SDS011;36557;53.572;10.170;2023-04-15T12:36:25;11.25;;;9.23;;
50605;SDS011;36557;53.572;10.170;2023-04-15T12:38:51;12.45;;;8.48;;
50605;SDS011;36557;53.572;10.170;2023-04-15T12:41:17;13.60;;;10.10;;
50605;SDS011;36557;53.572;10.170;2023-04-15T12:43:44;13.95;;;9.18;;
50605;SDS011;36557;53.572;10.170;2023-04-15T12:46:11;12.95;;;9.20;;
50605;SDS011;36557;53.572;10.170;2023-04-15T12:48:37;12.73;;;9.20;;
50605;SDS011;36557;53.572;10.170;2023-04-15T12:51:03;14.32;;;10.68;;
50605;SDS011;36557;53.572;10.170;2023-04-15T12:53:28;13.70;;;10.20;;
50605;SDS011;36557;53.572;10.170;2023-04-15T12:55:55;12.93;;;10.18;;
50605;SDS011;36557;53.572;10.170;2023-04-15T12:58:20;13.77;;;10.75;;
50605;SDS011;36557;53.572;10.170;2023-04-15T13:00:46;14.90;;;9.77;;
50605;SDS011;36557;53.572;10.170;2023-04-15T13:03:13;14.48;;;9.73;;
50605;SDS011;36557;53.572;10.170;2023-04-15T13:05:40;13.45;;;10.70;;
50605;SDS011;36557;53.572;10.170;2023-04-15T13:08:06;17.35;;;10.70;;
50605;SDS011;36557;53.572;10.170;2023-04-15T13:10:31;13.63;;;9.88;;
50605;SDS011;36557;53.572;10.170;2023-04-15T13:13:00;13.57;;;10.73;;
50605;SDS011;36557;53.572;10.170;2023-04-15T13:15:27;16.25;;;11.93;;
50605;SDS011;36557;53.572;10.170;2023-04-15T13:17:53;15.05;;;10.25;;
50605;SDS011;36557;53.572;10.170;2023-04-15T13:20:19;14.00;;;10.13;;
50605;SDS011;36557;53.572;10.170;2023-04-15T13:22:45;16.65;;;10.40;;
50605;SDS011;36557;53.572;10.170;2023-04-15T13:25:11;13.27;;;10.20;;
50605;SDS011;36557;53.572;10.170;2023-04-15T13:27:36;15.25;;;10.88;;
50605;SDS011;36557;53.572;10.170;2023-04-15T13:30:03;12.90;;;10.00;;
50605;SDS011;36557;53.572;10.170;2023-04-15T13:32:29;14.70;;;10.32;;
50605;SDS011;36557;53.572;10.170;2023-04-15T13:34:55;20.10;;;11.52;;
50605;SDS011;36557;53.572;10.170;2023-04-15T13:37:25;38.00;;;22.15;;
50605;SDS011;36557;53.572;10.170;2023-04-15T13:39:52;11.98;;;9.80;;
50605;SDS011;36557;53.572;10.170;2023-04-15T13:42:18;16.17;;;11.25;;
50605;SDS011;36557;53.572;10.170;2023-04-15T13:44:43;15.55;;;10.75;;
50605;SDS011;36557;53.572;10.170;2023-04-15T13:47:09;11.68;;;9.35;;
50605;SDS011;36557;53.572;10.170;2023-04-15T13:49:35;17.95;;;11.35;;
50605;SDS011;36557;53.572;10.170;2023-04-15T13:52:01;15.65;;;9.70;;
50605;SDS011;36557;53.572;10.170;2023-04-15T13:54:26;12.50;;;9.85;;
50605;SDS011;36557;53.572;10.170;2023-04-15T13:56:53;13.82;;;9.02;;
50605;SDS011;36557;53.572;10.170;2023-04-15T13:59:21;14.60;;;9.57;;
50605;SDS011;36557;53.572;10.170;2023-04-15T14:01:47;11.57;;;9.02;;
50605;SDS011;36557;53.572;10.170;2023-04-15T14:04:12;12.73;;;8.88;;
50605;SDS011;36557;53.572;10.170;2023-04-15T14:06:38;10.48;;;9.07;;
50605;SDS011;36557;53.572;10.170;2023-04-15T14:09:04;12.18;;;9.15;;
50605;SDS011;36557;53.572;10.170;2023-04-15T14:11:30;17.00;;;9.45;;
50605;SDS011;36557;53.572;10.170;2023-04-15T14:13:56;14.13;;;8.82;;
50605;SDS011;36557;53.572;10.170;2023-04-15T14:16:21;11.55;;;8.40;;
50605;SDS011;36557;53.572;10.170;2023-04-15T14:18:47;11.77;;;9.25;;
50605;SDS011;36557;53.572;10.170;2023-04-15T14:21:13;12.07;;;8.75;;
50605;SDS011;36557;53.572;10.170;2023-04-15T14:23:39;13.38;;;9.20;;
50605;SDS011;36557;53.572;10.170;2023-04-15T14:26:05;13.48;;;9.57;;
50605;SDS011;36557;53.572;10.170;2023-04-15T14:28:31;10.70;;;8.45;;
50605;SDS011;36557;53.572;10.170;2023-04-15T14:30:56;12.23;;;8.73;;
50605;SDS011;36557;53.572;10.170;2023-04-15T14:33:22;10.73;;;8.05;;
50605;SDS011;36557;53.572;10.170;2023-04-15T14:35:48;12.10;;;8.40;;
50605;SDS011;36557;53.572;10.170;2023-04-15T14:38:15;9.68;;;7.85;;